Time,TemperatureF,DewpointF,PressureIn,WindDirection,WindDirectionDegrees,WindSpeedMPH,WindSpeedGustMPH,Humidity,HourlyPrecipIn,Conditions,Clouds,dailyrainin,SoftwareType,DateUTC
2013-05-15 00:02:00,73.0,34.0,29.49,North,355,0.0,0.0,24,0.00,,,0.00,,2013-05-15 05:02:00,
2013-05-15 00:12:00,73.0,34.0,29.49,North,355,0.0,0.0,24,0.00,,,0.00,,2013-05-15 05:12:00,
2013-05-15 00:22:00,72.0,35.0,29.50,North,355,0.0,0.0,26,0.00,,,0.00,,2013-05-15 05:22:00,
2013-05-15 00:32:00,72.0,36.0,29.50,North,355,0.0,0.0,27,0.00,,,0.00,,2013-05-15 05:32:00,
2013-05-15 00:42:00,72.0,36.0,29.50,North,355,0.0,0.0,27,0.00,,,0.00,,2013-05-15 05:42:00,
2013-05-15 00:52:00,71.0,37.0,29.51,North,355,0.0,0.0,29,0.00,,,0.00,,2013-05-15 05:52:00,
2013-05-15 01:02:00,71.0,39.0,29.52,North,355,0.0,0.0,31,0.00,,,0.00,,2013-05-15 06:02:00,
2013-05-15 01:11:00,71.0,39.0,29.52,North,355,0.0,0.0,31,0.00,,,0.00,,2013-05-15 06:11:00,
2013-05-15 01:21:00,70.0,40.0,29.53,North,355,0.0,0.0,33,0.00,,,0.00,,2013-05-15 06:21:00,
2013-05-15 01:32:00,70.0,41.0,29.54,North,355,0.0,0.0,35,0.00,,,0.00,,2013-05-15 06:32:00,
2013-05-15 01:41:00,69.0,42.0,29.54,NNW,346,0.0,0.0,37,0.00,,,0.00,,2013-05-15 06:41:00,
2013-05-15 01:52:00,69.0,42.0,29.54,NNW,346,0.0,0.0,37,0.00,,,0.00,,2013-05-15 06:52:00,
2013-05-15 02:01:00,69.0,43.0,29.55,NNW,328,0.0,0.0,39,0.00,,,0.00,,2013-05-15 07:01:00,
2013-05-15 02:11:00,69.0,43.0,29.55,NNW,328,0.0,0.0,39,0.00,,,0.00,,2013-05-15 07:11:00,
2013-05-15 02:21:00,68.0,43.0,29.56,NNW,328,0.0,0.0,40,0.00,,,0.00,,2013-05-15 07:21:00,
2013-05-15 02:32:00,67.0,44.0,29.56,NNW,348,0.0,0.0,43,0.00,,,0.00,,2013-05-15 07:32:00,
2013-05-15 02:41:00,67.0,44.0,29.56,NNW,348,0.0,0.0,43,0.00,,,0.00,,2013-05-15 07:41:00,
2013-05-15 02:52:00,66.0,44.0,29.57,NNW,329,0.0,0.0,45,0.00,,,0.00,,2013-05-15 07:52:00,
2013-05-15 03:02:00,65.0,44.0,29.58,NNW,345,0.0,0.0,46,0.00,,,0.00,,2013-05-15 08:02:00,
2013-05-15 03:12:00,65.0,44.0,29.58,NNW,345,0.0,0.0,46,0.00,,,0.00,,2013-05-15 08:12:00,
2013-05-15 03:21:00,65.0,45.0,29.58,North,355,0.0,0.0,48,0.00,,,0.00,,2013-05-15 08:21:00,
2013-05-15 03:32:00,65.0,45.0,29.59,North,0,0.0,0.0,49,0.00,,,0.00,,2013-05-15 08:32:00,
2013-05-15 03:42:00,64.0,45.0,29.59,NNE,13,0.0,0.0,50,0.00,,,0.00,,2013-05-15 08:42:00,
2013-05-15 03:53:00,64.0,45.0,29.59,NNE,13,0.0,0.0,50,0.00,,,0.00,,2013-05-15 08:53:00,
2013-05-15 04:01:00,64.0,45.0,29.59,NNE,13,0.0,0.0,50,0.00,,,0.00,,2013-05-15 09:01:00,
2013-05-15 04:11:00,64.0,45.0,29.59,NNE,13,0.0,0.0,50,0.00,,,0.00,,2013-05-15 09:11:00,
2013-05-15 04:21:00,64.0,45.0,29.60,SSW,200,0.0,0.0,50,0.00,,,0.00,,2013-05-15 09:21:00,
2013-05-15 04:33:00,64.0,45.0,29.60,SSW,200,0.0,0.0,50,0.00,,,0.00,,2013-05-15 09:33:00,
2013-05-15 04:42:00,64.0,45.0,29.60,SSW,200,0.0,0.0,50,0.00,,,0.00,,2013-05-15 09:42:00,
2013-05-15 04:53:00,64.0,45.0,29.60,SSW,200,0.0,0.0,50,0.00,,,0.00,,2013-05-15 09:53:00,
2013-05-15 05:22:00,63.0,45.0,29.61,North,5,0.0,0.0,51,0.00,,,0.00,,2013-05-15 10:22:00,
2013-05-15 05:32:00,60.0,45.0,29.65,North,0,0.0,0.0,58,0.00,,,0.00,,2013-05-15 10:32:00,
2013-05-15 05:42:00,59.0,45.0,29.66,North,0,0.0,0.0,59,0.00,,,0.00,,2013-05-15 10:42:00,
2013-05-15 05:52:00,59.0,45.0,29.66,North,0,0.0,0.0,59,0.00,,,0.00,,2013-05-15 10:52:00,
2013-05-15 06:09:00,58.0,44.0,29.67,North,0,0.0,0.0,60,0.00,,,0.00,,2013-05-15 11:09:00,
2013-05-15 06:17:00,58.0,45.0,29.67,North,0,0.0,0.0,62,0.00,,,0.00,,2013-05-15 11:17:00,
2013-05-15 06:26:00,58.0,45.0,29.67,North,0,0.0,0.0,62,0.00,,,0.00,,2013-05-15 11:26:00,
2013-05-15 06:36:00,57.0,44.0,29.68,North,0,0.0,0.0,62,0.00,,,0.00,,2013-05-15 11:36:00,
2013-05-15 06:47:00,57.0,45.0,29.69,North,0,0.0,0.0,64,0.00,,,0.00,,2013-05-15 11:47:00,
2013-05-15 06:59:00,57.0,45.0,29.69,North,0,0.0,0.0,64,0.00,,,0.00,,2013-05-15 11:59:00,
2013-05-15 07:06:00,57.0,45.0,29.71,North,0,0.0,0.0,64,0.00,,,0.00,,2013-05-15 12:06:00,
2013-05-15 07:13:00,57.0,45.0,29.72,North,0,0.0,0.0,63,0.00,,,0.00,,2013-05-15 12:13:00,
2013-05-15 07:27:00,57.0,45.0,29.72,North,0,0.0,0.0,63,0.00,,,0.00,,2013-05-15 12:27:00,
2013-05-15 07:35:00,58.0,45.0,29.74,North,0,0.0,0.0,61,0.00,,,0.00,,2013-05-15 12:35:00,
2013-05-15 07:46:00,58.0,45.0,29.74,North,0,0.0,0.0,61,0.00,,,0.00,,2013-05-15 12:46:00,
2013-05-15 07:57:00,58.0,44.0,29.75,North,0,0.0,0.0,60,0.00,,,0.00,,2013-05-15 12:57:00,
2013-05-15 08:07:00,59.0,45.0,29.76,North,0,0.0,0.0,59,0.00,,,0.00,,2013-05-15 13:07:00,
2013-05-15 08:24:00,60.0,45.0,29.76,NNE,13,0.0,0.0,57,0.00,,,0.00,,2013-05-15 13:24:00,
2013-05-15 08:35:00,60.0,44.0,29.78,NNE,13,0.0,0.0,56,0.00,,,0.00,,2013-05-15 13:35:00,
2013-05-15 08:46:00,60.0,44.0,29.78,NNE,13,0.0,0.0,56,0.00,,,0.00,,2013-05-15 13:46:00,
2013-05-15 08:58:00,61.0,44.0,29.78,North,11,0.0,0.0,53,0.00,,,0.00,,2013-05-15 13:58:00,
2013-05-15 09:05:00,62.0,44.0,29.78,North,351,0.0,0.0,52,0.00,,,0.00,,2013-05-15 14:05:00,
2013-05-15 09:13:00,62.0,44.0,29.78,North,351,0.0,0.0,52,0.00,,,0.00,,2013-05-15 14:13:00,
2013-05-15 09:25:00,62.0,44.0,29.78,North,5,0.0,0.0,51,0.00,,,0.00,,2013-05-15 14:25:00,
2013-05-15 09:36:00,64.0,43.0,29.78,North,355,0.0,0.0,47,0.00,,,0.00,,2013-05-15 14:36:00,
2013-05-15 09:45:00,64.0,43.0,29.78,North,355,0.0,0.0,47,0.00,,,0.00,,2013-05-15 14:45:00,
2013-05-15 10:08:00,66.0,43.0,29.79,North,0,0.0,0.0,43,0.00,,,0.00,,2013-05-15 15:08:00,
2013-05-15 10:15:00,66.0,43.0,29.79,North,0,0.0,0.0,43,0.00,,,0.00,,2013-05-15 15:15:00,
2013-05-15 10:27:00,67.0,44.0,29.78,North,0,0.0,0.0,43,0.00,,,0.00,,2013-05-15 15:27:00,
2013-05-15 10:36:00,69.0,42.0,29.78,North,0,0.0,0.0,37,0.00,,,0.00,,2013-05-15 15:36:00,
2013-05-15 10:47:00,69.0,42.0,29.78,North,0,0.0,0.0,37,0.00,,,0.00,,2013-05-15 15:47:00,
2013-05-15 11:00:00,69.0,42.0,29.78,North,5,0.0,0.0,38,0.00,,,0.00,,2013-05-15 16:00:00,
2013-05-15 11:07:00,69.0,41.0,29.78,North,5,0.0,0.0,36,0.00,,,0.00,,2013-05-15 16:07:00,
2013-05-15 11:20:00,68.0,39.0,29.75,NE,42,0.0,1.0,35,0.00,,,0.00,,2013-05-15 16:20:00,
2013-05-15 11:27:00,68.0,39.0,29.75,NE,42,0.0,1.0,35,0.00,,,0.00,,2013-05-15 16:27:00,
2013-05-15 11:34:00,67.0,42.0,29.75,NE,42,0.0,0.0,40,0.00,,,0.00,,2013-05-15 16:34:00,
2013-05-15 11:47:00,67.0,42.0,29.75,NE,42,0.0,0.0,40,0.00,,,0.00,,2013-05-15 16:47:00,
2013-05-15 11:58:00,66.0,42.0,29.75,NNE,32,0.0,0.0,41,0.00,,,0.00,,2013-05-15 16:58:00,
2013-05-15 12:08:00,67.0,43.0,29.77,NNE,32,0.0,0.0,41,0.00,,,0.00,,2013-05-15 17:08:00,
2013-05-15 12:17:00,67.0,43.0,29.77,NNE,32,0.0,0.0,41,0.00,,,0.00,,2013-05-15 17:17:00,
2013-05-15 12:26:00,67.0,42.0,29.78,NNE,32,0.0,0.0,40,0.00,,,0.00,,2013-05-15 17:26:00,
2013-05-15 12:35:00,68.0,43.0,29.77,NNE,32,0.0,0.0,40,0.00,,,0.00,,2013-05-15 17:35:00,
2013-05-15 12:45:00,68.0,43.0,29.77,NNE,32,0.0,0.0,40,0.00,,,0.00,,2013-05-15 17:45:00,
2013-05-15 12:58:00,68.0,41.0,29.76,NNE,32,0.0,0.0,38,0.00,,,0.00,,2013-05-15 17:58:00,
2013-05-15 13:04:00,69.0,41.0,29.76,NNE,32,0.0,0.0,36,0.00,,,0.00,,2013-05-15 18:04:00,
2013-05-15 13:26:00,70.0,42.0,29.76,NNE,15,0.0,0.0,36,0.00,,,0.00,,2013-05-15 18:26:00,
2013-05-15 13:35:00,70.0,41.0,29.76,NNE,15,0.0,0.0,35,0.00,,,0.00,,2013-05-15 18:35:00,
2013-05-15 13:46:00,70.0,41.0,29.76,NNE,15,0.0,0.0,35,0.00,,,0.00,,2013-05-15 18:46:00,
2013-05-15 14:06:00,71.0,42.0,29.75,North,5,0.0,0.0,35,0.00,,,0.00,,2013-05-15 19:06:00,
2013-05-15 14:14:00,71.0,42.0,29.75,North,5,0.0,0.0,35,0.00,,,0.00,,2013-05-15 19:14:00,
2013-05-15 14:36:00,72.0,42.0,29.74,North,350,0.0,0.0,34,0.00,,,0.00,,2013-05-15 19:36:00,
2013-05-15 14:44:00,72.0,42.0,29.74,North,350,0.0,0.0,34,0.00,,,0.00,,2013-05-15 19:44:00,
2013-05-15 14:56:00,73.0,42.0,29.74,North,350,0.0,0.0,33,0.00,,,0.00,,2013-05-15 19:56:00,
2013-05-15 15:16:00,74.0,42.0,29.73,North,349,0.0,0.0,32,0.00,,,0.00,,2013-05-15 20:16:00,
2013-05-15 15:26:00,74.0,41.0,29.73,SSW,196,0.0,0.0,31,0.00,,,0.00,,2013-05-15 20:26:00,
2013-05-15 15:36:00,75.0,41.0,29.72,SSW,199,0.0,0.0,29,0.00,,,0.00,,2013-05-15 20:36:00,
2013-05-15 15:45:00,75.0,41.0,29.72,SSW,199,0.0,0.0,29,0.00,,,0.00,,2013-05-15 20:45:00,
2013-05-15 15:52:00,76.0,41.0,29.72,NNE,18,0.0,0.0,29,0.00,,,0.00,,2013-05-15 20:52:00,
2013-05-15 16:07:00,77.0,42.0,29.71,NNE,17,0.0,0.0,29,0.00,,,0.00,,2013-05-15 21:07:00,
2013-05-15 16:18:00,77.0,42.0,29.71,NNE,17,0.0,0.0,29,0.00,,,0.00,,2013-05-15 21:18:00,
2013-05-15 16:26:00,77.0,41.0,29.71,North,5,0.0,0.0,28,0.00,,,0.00,,2013-05-15 21:26:00,
2013-05-15 16:38:00,78.0,42.0,29.70,North,5,0.0,0.0,28,0.00,,,0.00,,2013-05-15 21:38:00,
2013-05-15 16:48:00,78.0,42.0,29.70,North,5,0.0,0.0,28,0.00,,,0.00,,2013-05-15 21:48:00,
2013-05-15 17:00:00,78.0,42.0,29.70,North,5,0.0,0.0,28,0.00,,,0.00,,2013-05-15 22:00:00,
2013-05-15 17:08:00,78.0,41.0,29.70,North,5,0.0,3.0,27,0.00,,,0.00,,2013-05-15 22:08:00,
2013-05-15 17:16:00,78.0,41.0,29.70,North,5,0.0,3.0,27,0.00,,,0.00,,2013-05-15 22:16:00,
2013-05-15 17:27:00,78.0,42.0,29.70,SSW,193,0.0,0.0,28,0.00,,,0.00,,2013-05-15 22:27:00,
2013-05-15 17:37:00,78.0,42.0,29.70,North,0,0.0,0.0,28,0.00,,,0.00,,2013-05-15 22:37:00,
2013-05-15 17:47:00,78.0,42.0,29.70,North,0,0.0,0.0,28,0.00,,,0.00,,2013-05-15 22:47:00,
2013-05-15 17:53:00,78.0,42.0,29.70,NNE,14,0.0,0.0,28,0.00,,,0.00,,2013-05-15 22:53:00,
2013-05-15 18:06:00,79.0,42.0,29.70,NNE,12,0.0,0.0,27,0.00,,,0.00,,2013-05-15 23:06:00,
2013-05-15 18:14:00,79.0,42.0,29.70,NNE,12,0.0,0.0,27,0.00,,,0.00,,2013-05-15 23:14:00,
2013-05-15 18:27:00,79.0,43.0,29.70,NNE,15,0.0,3.0,28,0.00,,,0.00,,2013-05-15 23:27:00,
2013-05-15 18:37:00,77.0,41.0,29.70,North,350,0.0,0.0,28,0.00,,,0.00,,2013-05-15 23:37:00,
2013-05-15 18:47:00,77.0,41.0,29.70,North,350,0.0,0.0,28,0.00,,,0.00,,2013-05-15 23:47:00,
2013-05-15 19:00:00,76.0,41.0,29.70,North,349,0.0,0.0,29,0.00,,,0.00,,2013-05-16 00:00:00,
2013-05-15 19:16:00,75.0,42.0,29.70,NNW,341,0.0,0.0,31,0.00,,,0.00,,2013-05-16 00:16:00,
2013-05-15 19:25:00,74.0,42.0,29.70,NNW,346,0.0,0.0,32,0.00,,,0.00,,2013-05-16 00:25:00,
2013-05-15 19:35:00,74.0,43.0,29.70,NNW,346,0.0,0.0,33,0.00,,,0.00,,2013-05-16 00:35:00,
2013-05-15 19:47:00,74.0,43.0,29.70,West,263,0.0,0.0,33,0.00,,,0.00,,2013-05-16 00:47:00,
2013-05-15 19:58:00,74.0,43.0,29.70,West,263,0.0,0.0,33,0.00,,,0.00,,2013-05-16 00:58:00,
2013-05-15 20:05:00,73.0,44.0,29.71,NNW,348,0.0,0.0,35,0.00,,,0.00,,2013-05-16 01:05:00,
2013-05-15 20:15:00,72.0,44.0,29.71,NNW,348,0.0,0.0,36,0.00,,,0.00,,2013-05-16 01:15:00,
2013-05-15 20:35:00,71.0,43.0,29.71,NNW,348,0.0,0.0,37,0.00,,,0.00,,2013-05-16 01:35:00,
2013-05-15 20:47:00,71.0,43.0,29.71,NNW,348,0.0,0.0,37,0.00,,,0.00,,2013-05-16 01:47:00,
2013-05-15 21:06:00,69.0,44.0,29.71,NNW,348,0.0,0.0,40,0.00,,,0.00,,2013-05-16 02:06:00,
2013-05-15 21:15:00,69.0,44.0,29.71,NNW,348,0.0,0.0,40,0.00,,,0.00,,2013-05-16 02:15:00,
2013-05-15 21:26:00,68.0,45.0,29.72,NNW,348,0.0,0.0,43,0.00,,,0.00,,2013-05-16 02:26:00,
2013-05-15 21:36:00,66.0,44.0,29.72,NNW,348,0.0,0.0,45,0.00,,,0.00,,2013-05-16 02:36:00,
2013-05-15 21:45:00,66.0,44.0,29.72,NNW,348,0.0,0.0,45,0.00,,,0.00,,2013-05-16 02:45:00,
2013-05-15 21:55:00,66.0,44.0,29.72,NNW,348,0.0,0.0,45,0.00,,,0.00,,2013-05-16 02:55:00,
2013-05-15 22:06:00,64.0,44.0,29.72,NNW,348,0.0,0.0,49,0.00,,,0.00,,2013-05-16 03:06:00,
2013-05-15 22:14:00,64.0,44.0,29.72,NNW,348,0.0,0.0,49,0.00,,,0.00,,2013-05-16 03:14:00,
2013-05-15 22:25:00,63.0,44.0,29.72,NNW,348,0.0,0.0,50,0.00,,,0.00,,2013-05-16 03:25:00,
2013-05-15 22:35:00,63.0,45.0,29.72,NNW,348,0.0,0.0,51,0.00,,,0.00,,2013-05-16 03:35:00,
2013-05-15 22:44:00,63.0,45.0,29.72,NNW,348,0.0,0.0,51,0.00,,,0.00,,2013-05-16 03:44:00,
2013-05-15 22:56:00,62.0,44.0,29.72,NNW,348,0.0,0.0,52,0.00,,,0.00,,2013-05-16 03:56:00,
2013-05-15 23:02:00,61.0,44.0,29.73,NNW,348,0.0,0.0,53,0.00,,,0.00,,2013-05-16 04:02:00,
2013-05-15 23:12:00,61.0,44.0,29.73,NNW,348,0.0,0.0,53,0.00,,,0.00,,2013-05-16 04:12:00,
2013-05-15 23:23:00,61.0,44.0,29.73,NNW,348,0.0,0.0,54,0.00,,,0.00,,2013-05-16 04:23:00,
2013-05-15 23:33:00,60.0,45.0,29.73,NNW,348,0.0,0.0,57,0.00,,,0.00,,2013-05-16 04:33:00,
2013-05-15 23:42:00,60.0,45.0,29.73,NNW,348,0.0,0.0,57,0.00,,,0.00,,2013-05-16 04:42:00,
2013-05-15 23:52:00,59.0,45.0,29.73,NNW,348,0.0,0.0,59,0.00,,,0.00,,2013-05-16 04:52:00,